Time;durP1;ratioP1;P1;durP2;ratioP2;P2;SDS_P1;SDS_P2;PMS_P1;PMS_P2;Temp;Humidity;BMP_temperature;BMP_pressure;BME280_temperature;BME280_humidity;BME280_pressure;Samples;Min_cycle;Max_cycle;Signal;HPM_P1;HPM_P2
2023/01/17 00:02:00;;;;;;;32.83;16.97;;;;;;;3.92;92.21;93532.34;5013016;28;20327;-76
2023/01/17 00:09:59;;;;;;;36.35;19.90;;;;;;;4.32;91.57;93562.53;5031237;28;20411;-76
2023/01/17 00:12:28;;;;;;;32.80;17.30;;;;;;;4.42;90.90;93570.69;5032930;28;20199;-76
2023/01/17 00:14:54;;;;;;;27.43;15.53;;;;;;;4.28;90.70;93587.38;5032962;28;20179;-76
2023/01/17 00:17:24;;;;;;;24.07;13.77;;;;;;;4.22;90.66;93548.31;5013787;28;20200;-76
2023/01/17 01:34:55;;;;;;;27.40;14.50;;;;;;;4.37;91.48;93538.47;5018407;28;20568;-76
2023/01/17 01:37:20;;;;;;;25.93;12.90;;;;;;;4.49;91.09;93532.41;5030660;28;20444;-76
2023/01/17 01:39:46;;;;;;;20.87;10.50;;;;;;;4.47;91.42;93515.38;5031287;28;20176;-76
2023/01/17 01:42:15;;;;;;;19.90;10.77;;;;;;;4.56;91.05;93542.81;5031117;28;20207;-76
2023/01/17 01:44:49;;;;;;;26.95;13.38;;;;;;;4.52;90.96;93528.56;5030123;28;20420;-76
2023/01/17 01:47:25;;;;;;;33.70;17.63;;;;;;;4.57;90.71;93528.78;5031469;28;20267;-76
2023/01/17 01:49:51;;;;;;;30.35;16.35;;;;;;;4.47;90.58;93482.31;5029259;28;20424;-76
2023/01/17 01:52:20;;;;;;;18.67;11.57;;;;;;;4.62;91.04;93515.91;5029624;28;20416;-76
2023/01/17 01:54:52;;;;;;;17.00;10.20;;;;;;;4.60;90.84;93468.41;5031190;28;20581;-76
2023/01/17 01:57:21;;;;;;;15.73;9.43;;;;;;;4.59;90.22;93485.06;5024755;28;20270;-76
2023/01/17 02:00:01;;;;;;;15.40;8.67;;;;;;;4.81;90.44;93509.81;5011482;28;20176;-76
2023/01/17 02:02:28;;;;;;;18.17;10.80;;;;;;;4.83;90.24;93540.88;5010221;28;20434;-76
2023/01/17 02:04:55;;;;;;;23.80;12.32;;;;;;;4.62;91.42;93484.66;5009574;28;20479;-76
2023/01/17 02:07:40;;;;;;;20.30;10.27;;;;;;;4.88;90.82;93504.56;5010660;28;20187;-76
2023/01/17 02:10:05;;;;;;;18.73;9.23;;;;;;;4.90;90.35;93500.75;5029597;28;20657;-76
2023/01/17 02:12:31;;;;;;;16.97;8.60;;;;;;;4.94;89.93;93493.28;5017316;28;20176;-76
2023/01/17 02:14:58;;;;;;;15.47;8.40;;;;;;;5.01;89.82;93511.50;5027766;28;20233;-76
2023/01/17 02:17:42;;;;;;;23.90;11.13;;;;;;;4.79;89.65;93485.75;5018735;28;20200;-76
2023/01/17 02:20:28;;;;;;;27.10;11.83;;;;;;;5.01;90.06;93504.50;5011010;28;20183;-76
2023/01/17 02:23:12;;;;;;;17.67;9.90;;;;;;;5.00;89.71;93508.09;5011259;28;20250;-76
2023/01/17 02:26:13;;;;;;;25.73;10.93;;;;;;;5.07;89.37;93514.06;5011756;28;20176;-76
2023/01/17 02:29:09;;;;;;;18.13;9.87;;;;;;;4.99;89.18;93516.13;5013354;28;20187;-75
2023/01/17 02:31:50;;;;;;;30.13;12.23;;;;;;;4.78;89.45;93504.22;5031484;28;20196;-76
2023/01/17 02:34:23;;;;;;;26.23;15.20;;;;;;;4.79;89.85;93505.81;5013270;28;20430;-76
2023/01/17 02:37:03;;;;;;;38.27;17.03;;;;;;;4.69;90.09;93495.03;5013955;28;20291;-77
2023/01/17 02:40:08;;;;;;;43.67;21.43;;;;;;;4.67;90.77;93517.91;5013279;28;20441;-76
2023/01/17 02:42:41;;;;;;;45.80;20.13;;;;;;;4.64;90.64;93485.25;5004111;28;20624;-77
2023/01/17 02:45:07;;;;;;;29.53;14.47;;;;;;;4.62;90.36;93483.84;5023200;28;20176;-77
2023/01/17 02:47:32;;;;;;;26.40;12.03;;;;;;;4.83;90.88;93497.38;5014452;28;20176;-76
2023/01/17 02:50:11;;;;;;;27.07;12.87;;;;;;;4.80;90.95;93489.97;5013741;28;20429;-76
2023/01/17 02:52:43;;;;;;;23.50;11.70;;;;;;;4.86;91.21;93481.28;5032025;28;20274;-76
2023/01/17 02:55:21;;;;;;;18.90;9.75;;;;;;;4.94;91.56;93490.66;5033584;28;20447;-76
2023/01/17 02:57:55;;;;;;;18.73;8.90;;;;;;;4.82;91.79;93464.50;5016668;28;20200;-76
2023/01/17 03:00:23;;;;;;;14.97;8.73;;;;;;;4.93;91.79;93471.63;5008740;28;20267;-76
2023/01/17 03:03:19;;;;;;;13.57;7.80;;;;;;;5.07;91.61;93471.56;5014397;28;20247;-76
2023/01/17 03:05:51;;;;;;;19.07;10.37;;;;;;;5.11;91.06;93483.13;5014231;28;20172;-75
2023/01/17 03:08:17;;;;;;;25.30;13.85;;;;;;;4.90;91.00;93487.69;5012034;28;20426;-76
2023/01/17 03:10:43;;;;;;;21.95;13.40;;;;;;;4.76;91.54;93465.31;5013188;28;20418;-77
2023/01/17 03:13:09;;;;;;;26.97;15.10;;;;;;;4.61;91.57;93471.81;5015330;28;20423;-75
2023/01/17 03:15:34;;;;;;;30.10;15.10;;;;;;;4.70;91.24;93455.75;5034163;28;20975;-75
2023/01/17 03:18:03;;;;;;;28.40;15.60;;;;;;;4.59;91.28;93473.81;5033441;28;20441;-75
2023/01/17 03:20:29;;;;;;;27.63;14.93;;;;;;;4.49;91.84;93466.50;5033739;28;20195;-76
2023/01/17 03:22:55;;;;;;;29.30;14.07;;;;;;;4.49;92.04;93454.25;5033843;28;20176;-76
2023/01/17 03:25:20;;;;;;;23.33;12.90;;;;;;;4.49;92.13;93449.06;5020123;28;20176;-76
2023/01/17 03:27:46;;;;;;;27.95;15.85;;;;;;;4.38;92.36;93480.97;5011991;28;20465;-76
2023/01/17 03:30:12;;;;;;;46.92;25.67;;;;;;;4.28;93.52;93464.16;5028910;28;20417;-75
2023/01/17 03:32:38;;;;;;;30.53;19.07;;;;;;;4.12;93.58;93447.22;5029200;28;20176;-76
2023/01/17 03:35:03;;;;;;;38.97;23.47;;;;;;;4.29;94.06;93465.78;5010840;28;20921;-76
2023/01/17 03:37:29;;;;;;;27.57;15.80;;;;;;;4.48;94.35;93463.09;5028511;28;20230;-76
2023/01/17 03:39:54;;;;;;;22.77;12.40;;;;;;;4.53;95.14;93489.28;5032639;28;20486;-76
2023/01/17 03:42:20;;;;;;;30.33;18.13;;;;;;;4.40;95.05;93465.13;5031906;28;20494;-77
2023/01/17 03:44:45;;;;;;;30.00;17.50;;;;;;;4.49;94.91;93474.31;5033722;28;20222;-76
2023/01/17 03:47:11;;;;;;;30.77;19.10;;;;;;;4.41;94.39;93477.16;5013172;28;20457;-76
2023/01/17 03:49:39;;;;;;;29.67;15.10;;;;;;;4.42;94.77;93474.31;5013755;28;20267;-76
2023/01/17 03:52:05;;;;;;;18.67;10.97;;;;;;;4.59;94.60;93484.25;5012527;28;20303;-76
2023/01/17 03:54:31;;;;;;;18.07;10.23;;;;;;;4.71;94.86;93472.97;5013842;28;20252;-76
2023/01/17 03:56:56;;;;;;;19.83;9.33;;;;;;;4.77;93.94;93437.44;5013451;28;20528;-76
2023/01/17 03:59:22;;;;;;;16.67;7.97;;;;;;;4.75;93.81;93416.84;5013810;28;20172;-76
2023/01/17 04:01:47;;;;;;;13.40;7.47;;;;;;;5.12;93.14;93463.88;5021613;28;20222;-76
2023/01/17 04:04:13;;;;;;;15.80;8.80;;;;;;;5.09;93.18;93464.31;5016766;28;20267;-76
2023/01/17 04:06:39;;;;;;;18.50;7.90;;;;;;;5.09;93.04;93491.19;5029688;28;20624;-76
2023/01/17 04:09:05;;;;;;;14.33;8.83;;;;;;;5.19;92.73;93472.47;5012362;28;20523;-76
2023/01/17 04:11:30;;;;;;;13.80;8.03;;;;;;;5.27;92.95;93487.88;5027276;28;20232;-77
2023/01/17 04:13:55;;;;;;;14.30;7.70;;;;;;;5.06;92.08;93451.69;5014196;28;20553;-77
2023/01/17 04:16:26;;;;;;;14.20;7.87;;;;;;;5.38;91.81;93494.97;5022835;28;20188;-77
2023/01/17 04:18:52;;;;;;;14.75;8.05;;;;;;;5.42;91.82;93493.56;5032145;28;20423;-76
2023/01/17 04:21:17;;;;;;;13.63;8.97;;;;;;;5.10;91.44;93445.06;5017560;28;20426;-76
2023/01/17 04:23:42;;;;;;;14.57;8.00;;;;;;;5.43;90.98;93505.59;5013212;28;20211;-77
2023/01/17 04:26:10;;;;;;;12.50;7.40;;;;;;;5.53;91.10;93513.75;5023042;28;20258;-75
2023/01/17 04:28:35;;;;;;;13.93;8.17;;;;;;;5.43;91.13;93478.72;5032285;28;20474;-75
2023/01/17 04:31:01;;;;;;;13.73;8.03;;;;;;;5.66;90.81;93492.75;5016758;28;20425;-76
2023/01/17 04:33:26;;;;;;;12.77;8.07;;;;;;;5.52;90.22;93480.84;5015880;28;20179;-76
2023/01/17 04:35:53;;;;;;;12.37;6.93;;;;;;;5.57;90.39;93483.59;5018581;28;20212;-76
2023/01/17 04:38:18;;;;;;;14.20;7.80;;;;;;;5.71;90.46;93504.38;5004375;28;20212;-76
2023/01/17 04:40:44;;;;;;;14.93;8.50;;;;;;;5.74;90.43;93493.47;5001742;28;20448;-76
2023/01/17 04:43:09;;;;;;;13.80;8.57;;;;;;;5.71;89.97;93483.50;5004293;28;20422;-76
2023/01/17 04:45:34;;;;;;;15.47;8.43;;;;;;;5.65;89.69;93485.13;5003141;28;20931;-76
2023/01/17 04:48:04;;;;;;;15.83;9.23;;;;;;;5.17;90.20;93462.25;5010088;28;20422;-76
2023/01/17 04:50:30;;;;;;;16.50;8.70;;;;;;;5.37;90.78;93490.78;5016692;28;20176;-76
2023/01/17 04:52:55;;;;;;;13.35;7.95;;;;;;;5.69;90.29;93510.59;5029693;28;20499;-76
2023/01/17 04:55:20;;;;;;;16.23;10.33;;;;;;;5.58;90.76;93503.47;5019142;28;20922;-76
2023/01/17 04:57:47;;;;;;;12.93;8.30;;;;;;;5.82;90.13;93527.16;5025060;28;20431;-76
2023/01/17 05:00:13;;;;;;;14.27;9.02;;;;;;;5.82;89.56;93534.97;5030769;28;20439;-76
2023/01/17 05:02:38;;;;;;;13.75;8.60;;;;;;;5.87;89.62;93533.34;5028832;28;20804;-76
2023/01/17 05:05:05;;;;;;;12.45;8.80;;;;;;;5.97;89.49;93525.81;5028687;28;20417;-76
2023/01/17 05:07:30;;;;;;;14.13;8.98;;;;;;;5.92;88.62;93527.50;5029860;28;20754;-76
2023/01/17 05:09:55;;;;;;;16.17;9.60;;;;;;;5.63;89.60;93515.84;5009957;28;20520;-76
2023/01/17 05:12:21;;;;;;;11.90;7.07;;;;;;;5.64;89.48;93546.97;5021386;28;20164;-76
2023/01/17 05:14:46;;;;;;;13.13;8.50;;;;;;;5.70;89.86;93555.78;5028030;28;20413;-76
2023/01/17 05:17:12;;;;;;;20.30;12.60;;;;;;;5.59;90.29;93565.09;5010713;28;20283;-76
2023/01/17 05:19:37;;;;;;;16.03;9.90;;;;;;;5.45;90.48;93563.56;5009652;28;20427;-76
2023/01/17 05:22:13;;;;;;;15.30;9.95;;;;;;;5.30;91.07;93535.19;5008440;28;20929;-76
2023/01/17 05:24:39;;;;;;;14.55;9.43;;;;;;;5.48;90.78;93537.06;5010464;28;20488;-75
2023/01/17 05:27:04;;;;;;;14.07;9.03;;;;;;;5.49;90.87;93517.00;5010405;28;20655;-75
2023/01/17 05:29:30;;;;;;;17.70;9.67;;;;;;;5.54;90.61;93523.16;5011482;28;20172;-75
2023/01/17 05:31:55;;;;;;;18.10;11.03;;;;;;;5.50;90.04;93526.41;5004537;28;20408;-75
2023/01/17 05:34:21;;;;;;;18.20;11.67;;;;;;;5.48;90.05;93531.84;5005292;28;20243;-75
2023/01/17 05:36:46;;;;;;;24.07;15.97;;;;;;;5.35;90.51;93531.16;5009436;28;20438;-75
2023/01/17 05:39:11;;;;;;;19.57;11.57;;;;;;;5.32;90.36;93506.28;5010695;28;20364;-75
2023/01/17 05:41:37;;;;;;;17.73;10.17;;;;;;;5.35;90.71;93500.66;5010796;28;20310;-75
2023/01/17 05:44:02;;;;;;;15.27;8.27;;;;;;;5.48;90.78;93499.72;5011240;28;20496;-75
2023/01/17 05:46:28;;;;;;;15.33;9.33;;;;;;;5.61;90.73;93516.09;5010417;28;20414;-75
2023/01/17 05:48:53;;;;;;;14.83;9.80;;;;;;;5.50;90.96;93511.56;5009708;28;20778;-75
2023/01/17 05:51:18;;;;;;;13.23;8.27;;;;;;;5.60;90.69;93488.41;5009794;28;20489;-75
2023/01/17 05:53:44;;;;;;;12.73;8.60;;;;;;;5.63;90.22;93479.31;5010325;28;20417;-75
2023/01/17 05:56:09;;;;;;;13.83;7.83;;;;;;;5.87;90.37;93494.19;5010765;28;20510;-75
2023/01/17 05:58:34;;;;;;;14.47;8.70;;;;;;;5.82;90.30;93473.13;5008135;28;20791;-75
2023/01/17 06:01:00;;;;;;;14.77;8.60;;;;;;;5.98;89.42;93505.72;5009762;28;20435;-75
2023/01/17 06:03:25;;;;;;;13.03;8.23;;;;;;;6.00;89.97;93503.72;5009841;28;20421;-75
2023/01/17 06:05:51;;;;;;;12.43;8.20;;;;;;;6.05;89.64;93501.28;5011226;28;20711;-75
2023/01/17 06:08:16;;;;;;;14.02;8.10;;;;;;;6.26;88.71;93456.41;5010309;28;20410;-75
2023/01/17 06:10:41;;;;;;;14.40;7.53;;;;;;;6.30;88.43;93478.50;5010721;28;20417;-75
2023/01/17 06:13:19;;;;;;;14.13;7.70;;;;;;;6.25;88.30;93486.16;5011153;28;20199;-75
2023/01/17 06:15:45;;;;;;;14.60;7.23;;;;;;;6.21;88.75;93469.34;5011004;28;20611;-75
2023/01/17 06:18:12;;;;;;;15.10;7.23;;;;;;;6.34;88.41;93458.72;5010992;28;20232;-75
2023/01/17 06:20:39;;;;;;;12.40;6.73;;;;;;;6.24;88.67;93474.13;5011215;28;20195;-75
2023/01/17 06:23:06;;;;;;;13.07;7.03;;;;;;;5.98;89.12;93435.22;5010815;28;20552;-75
2023/01/17 06:25:42;;;;;;;22.33;12.40;;;;;;;6.34;88.67;93453.50;5010782;28;20181;-76
2023/01/17 06:28:08;;;;;;;22.97;12.00;;;;;;;6.41;88.42;93488.19;5010986;28;20172;-76
2023/01/17 06:30:34;;;;;;;34.60;17.27;;;;;;;6.35;88.63;93507.38;5006590;28;20188;-76
2023/01/17 06:33:00;;;;;;;34.90;20.27;;;;;;;6.33;88.86;93513.81;5009052;28;20263;-76
2023/01/17 06:35:25;;;;;;;33.93;19.17;;;;;;;6.50;89.01;93514.81;5030401;28;20622;-76
2023/01/17 06:37:54;;;;;;;25.40;13.73;;;;;;;6.59;88.53;93508.28;5030543;28;20203;-76
2023/01/17 06:40:20;;;;;;;20.30;10.50;;;;;;;6.70;87.87;93504.13;5030305;28;20203;-76
2023/01/17 06:42:45;;;;;;;39.77;21.40;;;;;;;6.72;87.90;93531.69;5029164;28;20180;-76
2023/01/17 06:45:10;;;;;;;18.90;11.90;;;;;;;6.66;88.45;93516.06;5029984;28;20187;-76
2023/01/17 06:47:40;;;;;;;26.87;14.93;;;;;;;6.83;88.19;93530.13;5030316;28;20163;-76
2023/01/17 06:50:13;;;;;;;26.77;14.67;;;;;;;6.89;87.07;93538.91;5029961;28;20190;-76
2023/01/17 06:52:40;;;;;;;21.40;12.20;;;;;;;6.94;87.40;93503.22;5030315;28;20182;-76
2023/01/17 06:55:06;;;;;;;14.30;8.43;;;;;;;7.13;86.35;93537.97;5030416;28;20646;-76
2023/01/17 06:57:32;;;;;;;13.20;8.70;;;;;;;7.16;85.77;93533.13;5023396;28;20570;-76
2023/01/17 06:59:57;;;;;;;23.60;13.53;;;;;;;7.02;85.75;93491.63;5010580;28;20187;-76
2023/01/17 07:02:23;;;;;;;17.53;10.50;;;;;;;7.25;86.44;93535.41;4994245;28;20872;-76
2023/01/17 07:04:48;;;;;;;15.70;8.53;;;;;;;7.34;85.55;93544.56;5010550;28;20176;-76
2023/01/17 07:07:14;;;;;;;14.37;8.13;;;;;;;7.24;84.74;93497.19;5010549;28;20251;-76
2023/01/17 07:09:39;;;;;;;14.93;8.67;;;;;;;7.37;85.28;93517.91;5019654;28;20258;-76
2023/01/17 07:12:05;;;;;;;13.17;6.67;;;;;;;7.43;84.57;93525.69;5013161;28;20196;-76
2023/01/17 07:14:31;;;;;;;13.97;8.30;;;;;;;7.53;84.78;93531.16;5013853;28;20204;-76
2023/01/17 07:16:56;;;;;;;17.40;9.47;;;;;;;7.46;84.46;93524.41;5013701;28;20706;-76
2023/01/17 07:19:22;;;;;;;14.23;8.07;;;;;;;7.63;85.56;93532.41;5013931;28;20191;-76
2023/01/17 07:21:54;;;;;;;17.33;8.70;;;;;;;7.99;84.76;93521.75;5013577;28;20176;-76
2023/01/17 07:24:20;;;;;;;15.63;9.20;;;;;;;8.08;83.77;93538.75;5012315;28;20667;-76
2023/01/17 07:26:49;;;;;;;20.23;10.30;;;;;;;8.42;83.39;93503.06;5013682;28;20176;-75
2023/01/17 07:29:15;;;;;;;19.87;11.23;;;;;;;8.63;81.68;93539.19;5013652;28;20184;-75
2023/01/17 07:31:40;;;;;;;16.53;9.90;;;;;;;8.79;81.01;93542.13;5012741;28;20181;-75
2023/01/17 07:34:06;;;;;;;16.50;8.40;;;;;;;9.08;80.20;93523.53;5006911;28;20184;-74
2023/01/17 07:36:32;;;;;;;9.73;5.70;;;;;;;9.38;78.28;93530.38;5012140;28;20188;-74
2023/01/17 07:38:57;;;;;;;11.00;5.50;;;;;;;9.82;77.39;93529.53;5024728;28;20299;-74
2023/01/17 07:41:23;;;;;;;9.90;5.47;;;;;;;10.19;75.50;93550.13;5009093;28;20177;-75
2023/01/17 07:43:48;;;;;;;12.60;5.70;;;;;;;10.71;73.60;93529.53;5005521;28;20196;-74
2023/01/17 07:46:14;;;;;;;9.23;5.27;;;;;;;11.29;71.37;93541.28;5007219;28;20177;-74
2023/01/17 07:48:40;;;;;;;9.47;5.60;;;;;;;11.62;69.21;93541.06;5004198;28;20578;-75
2023/01/17 07:51:07;;;;;;;8.20;5.63;;;;;;;12.02;68.46;93548.56;5005725;28;20203;-74
2023/01/17 07:53:33;;;;;;;9.40;5.17;;;;;;;12.61;68.23;93540.56;5005354;28;20200;-74
2023/01/17 07:56:01;;;;;;;16.30;8.13;;;;;;;13.11;65.89;93547.91;5007139;28;20181;-75
2023/01/17 07:58:27;;;;;;;15.47;7.30;;;;;;;13.31;64.96;93549.88;5004390;28;20295;-75
2023/01/17 08:00:52;;;;;;;14.00;6.30;;;;;;;13.42;64.76;93561.25;5000704;28;20813;-75
2023/01/17 08:03:18;;;;;;;10.43;4.73;;;;;;;13.37;62.78;93566.53;5001571;28;20184;-74
2023/01/17 08:05:55;;;;;;;10.00;5.33;;;;;;;13.23;62.99;93526.59;5009749;28;20184;-75
2023/01/17 08:08:20;;;;;;;8.60;5.60;;;;;;;13.12;63.60;93562.72;5005686;28;20912;-75
2023/01/17 08:10:46;;;;;;;9.20;5.07;;;;;;;12.91;65.11;93554.94;5004970;28;20263;-76
2023/01/17 08:13:11;;;;;;;14.07;6.80;;;;;;;12.87;65.81;93573.16;5009172;28;20187;-75
2023/01/17 08:15:36;;;;;;;7.33;4.47;;;;;;;12.94;65.45;93552.59;5009168;28;20218;-75
2023/01/17 08:18:02;;;;;;;10.47;5.90;;;;;;;13.17;65.32;93554.03;5006695;28;20208;-75
2023/01/17 08:20:27;;;;;;;7.10;4.37;;;;;;;13.22;63.04;93562.00;5012314;28;20204;-75
2023/01/17 08:22:54;;;;;;;6.03;4.53;;;;;;;13.31;64.16;93564.94;5011914;28;20264;-74
2023/01/17 08:25:21;;;;;;;5.13;2.40;;;;;;;13.58;62.54;93568.16;5006785;28;20180;-74
2023/01/17 08:27:47;;;;;;;3.33;2.60;;;;;;;13.88;62.96;93581.47;5005838;28;20181;-74
2023/01/17 08:30:12;;;;;;;2.97;1.53;;;;;;;14.17;61.25;93578.34;5008526;28;20695;-74
2023/01/17 08:32:39;;;;;;;4.47;2.53;;;;;;;14.37;60.34;93541.25;5006358;28;20204;-75
2023/01/17 08:35:06;;;;;;;6.73;1.50;;;;;;;14.60;58.77;93575.16;5006550;28;20656;-74
2023/01/17 08:37:31;;;;;;;3.70;1.60;;;;;;;14.75;59.10;93573.56;5003601;28;20652;-74
2023/01/17 08:39:57;;;;;;;3.83;1.70;;;;;;;15.09;59.22;93579.81;5005964;28;20176;-75
2023/01/17 08:42:24;;;;;;;3.10;1.50;;;;;;;15.52;58.03;93583.63;5006447;28;20614;-75
2023/01/17 08:44:49;;;;;;;6.70;1.37;;;;;;;15.70;58.27;93582.25;5006570;28;20234;-74
2023/01/17 08:47:15;;;;;;;2.90;1.43;;;;;;;15.37;57.71;93552.69;5005305;28;20189;-75
2023/01/17 08:49:40;;;;;;;3.97;1.90;;;;;;;15.61;56.73;93578.59;5008908;28;20177;-76
2023/01/17 08:52:06;;;;;;;7.10;1.80;;;;;;;15.69;57.17;93573.50;5015667;28;20180;-75
2023/01/17 08:54:31;;;;;;;1.57;1.40;;;;;;;15.76;57.10;93560.72;5009259;28;20674;-75
2023/01/17 08:56:56;;;;;;;3.13;1.63;;;;;;;15.84;56.02;93565.44;5008800;28;20263;-75
2023/01/17 08:59:22;;;;;;;6.00;4.20;;;;;;;15.42;55.64;93554.50;5007108;28;20191;-75
2023/01/17 09:01:47;;;;;;;5.27;1.47;;;;;;;14.87;56.69;93560.81;5006884;28;20684;-75
2023/01/17 09:04:14;;;;;;;5.77;1.70;;;;;;;14.46;58.35;93546.84;5003433;28;20609;-76
2023/01/17 09:06:44;;;;;;;4.93;1.53;;;;;;;14.02;59.29;93530.69;5026410;28;20238;-75
2023/01/17 09:09:10;;;;;;;5.27;1.60;;;;;;;13.89;59.87;93522.22;5019944;28;20670;-76
2023/01/17 09:11:36;;;;;;;3.93;1.83;;;;;;;14.11;60.52;93537.81;5018749;28;20180;-75
2023/01/17 09:14:02;;;;;;;8.50;2.33;;;;;;;14.09;59.98;93545.25;5009381;28;20173;-75
2023/01/17 09:16:29;;;;;;;7.97;2.97;;;;;;;14.15;60.15;93548.69;5026948;28;20180;-76
2023/01/17 09:18:56;;;;;;;4.13;1.97;;;;;;;14.27;59.40;93536.00;5017082;28;20243;-75
2023/01/17 09:21:21;;;;;;;1.70;1.27;;;;;;;14.38;59.35;93528.81;5015144;28;20180;-74
2023/01/17 09:23:47;;;;;;;8.67;2.80;;;;;;;14.46;58.65;93539.69;5024520;28;20184;-75
2023/01/17 09:26:24;;;;;;;3.80;1.63;;;;;;;14.20;58.19;93519.56;5014091;28;20181;-75
2023/01/17 09:28:50;;;;;;;5.57;1.20;;;;;;;14.26;58.95;93529.09;5023440;28;20678;-74
2023/01/17 09:31:17;;;;;;;4.97;1.93;;;;;;;14.39;62.11;93533.88;5018612;28;20195;-78
2023/01/17 09:33:42;;;;;;;2.70;1.30;;;;;;;14.63;58.73;93532.25;5005941;28;20559;-77
2023/01/17 09:36:09;;;;;;;2.00;1.30;;;;;;;14.24;58.24;93492.31;5004961;28;20177;-76
2023/01/17 09:38:35;;;;;;;1.57;1.30;;;;;;;14.31;58.55;93513.22;4998074;28;20215;-75
2023/01/17 09:41:01;;;;;;;2.23;1.17;;;;;;;14.47;58.76;93525.38;5007693;28;20224;-76
2023/01/17 09:43:44;;;;;;;6.20;1.30;;;;;;;14.46;58.44;93520.34;5015700;28;20184;-75
2023/01/17 09:46:21;;;;;;;1.73;1.20;;;;;;;14.36;57.38;93529.88;5025216;28;20214;-75
2023/01/17 09:48:59;;;;;;;4.40;1.30;;;;;;;13.99;59.05;93518.78;5013353;28;20172;-77
2023/01/17 09:51:25;;;;;;;5.60;1.47;;;;;;;14.16;59.03;93526.47;5011655;28;20724;-76
2023/01/17 09:53:52;;;;;;;1.80;1.10;;;;;;;14.12;58.61;93526.19;5026861;28;20259;-76
2023/01/17 09:56:41;;;;;;;2.40;1.57;;;;;;;14.03;59.18;93564.81;5030685;28;20271;-76
2023/01/17 09:59:09;;;;;;;2.43;1.33;;;;;;;13.90;59.27;93550.25;5018486;28;20683;-76
2023/01/17 10:01:40;;;;;;;3.10;1.87;;;;;;;13.87;59.52;93568.50;5011531;28;20244;-77
2023/01/17 10:04:36;;;;;;;2.20;1.63;;;;;;;13.80;59.82;93558.19;5010663;28;20319;-76
2023/01/17 10:07:47;;;;;;;2.03;1.47;;;;;;;13.86;59.79;93551.84;5026154;28;20186;-77
2023/01/17 10:10:25;;;;;;;4.27;1.50;;;;;;;13.95;61.03;93534.38;5007567;28;20180;-75
2023/01/17 10:13:30;;;;;;;7.30;1.37;;;;;;;13.73;59.37;93519.81;5008025;28;20172;-75
2023/01/17 10:16:08;;;;;;;2.67;1.47;;;;;;;13.67;60.01;93553.38;5014536;28;20179;-76
2023/01/17 10:18:55;;;;;;;2.73;1.50;;;;;;;13.69;59.99;93558.41;5009289;28;20195;-75
2023/01/17 10:21:42;;;;;;;4.37;1.57;;;;;;;13.74;60.85;93546.00;5005242;28;20186;-75
2023/01/17 10:24:29;;;;;;;3.27;1.50;;;;;;;13.79;60.47;93575.09;5010214;28;20548;-75
2023/01/17 10:26:59;;;;;;;4.10;1.20;;;;;;;13.84;59.87;93550.50;5007188;28;20176;-77
2023/01/17 10:29:30;;;;;;;4.13;1.80;;;;;;;13.84;62.38;93553.16;5024974;28;20181;-76
2023/01/17 10:31:58;;;;;;;5.00;1.70;;;;;;;13.91;60.93;93569.56;5021086;28;20695;-77
2023/01/17 10:34:31;;;;;;;4.10;1.80;;;;;;;13.97;60.37;93548.16;5009597;28;20318;-75
2023/01/17 10:37:24;;;;;;;3.17;1.97;;;;;;;13.87;59.55;93558.72;5010348;28;20282;-76
2023/01/17 10:39:54;;;;;;;4.67;1.87;;;;;;;13.80;60.47;93560.81;4997701;28;20189;-76
2023/01/17 10:42:42;;;;;;;4.00;2.03;;;;;;;13.85;61.11;93555.53;5007322;28;20195;-76
2023/01/17 10:45:19;;;;;;;5.07;1.80;;;;;;;13.76;61.12;93524.56;5011075;28;20182;-76
2023/01/17 10:47:52;;;;;;;3.60;1.67;;;;;;;13.90;60.11;93542.31;5021217;28;20638;-77
2023/01/17 10:50:19;;;;;;;3.13;1.40;;;;;;;13.80;59.00;93525.66;5032284;28;20242;-76
2023/01/17 10:53:23;;;;;;;2.53;1.80;;;;;;;13.84;59.69;93527.50;5027101;28;20213;-76
2023/01/17 10:55:54;;;;;;;1.47;1.30;;;;;;;13.90;59.49;93546.81;5012139;28;20180;-76
2023/01/17 10:58:20;;;;;;;1.20;1.10;;;;;;;13.88;58.46;93541.78;5025839;28;20200;-76
2023/01/17 11:00:48;;;;;;;1.50;1.33;;;;;;;13.82;59.23;93532.28;5008682;28;20710;-76
2023/01/17 11:03:16;;;;;;;3.60;1.60;;;;;;;13.70;59.16;93533.56;5011428;28;20211;-76
2023/01/17 11:05:43;;;;;;;1.30;1.20;;;;;;;13.71;58.65;93530.66;5023536;28;20180;-76
2023/01/17 11:08:13;;;;;;;1.90;1.40;;;;;;;13.70;59.54;93531.72;5019793;28;20655;-76
2023/01/17 11:10:41;;;;;;;4.00;1.60;;;;;;;13.46;59.89;93480.38;5008165;28;20572;-76
2023/01/17 11:13:31;;;;;;;3.10;1.17;;;;;;;13.76;59.08;93516.63;5014072;28;20188;-76
2023/01/17 11:16:01;;;;;;;1.20;1.10;;;;;;;13.72;58.62;93511.09;5013865;28;20604;-76
2023/01/17 11:18:33;;;;;;;3.10;1.67;;;;;;;13.71;59.27;93500.78;5011715;28;20745;-76
2023/01/17 11:21:27;;;;;;;2.83;1.20;;;;;;;13.73;59.29;93506.59;5014481;28;20180;-76
2023/01/17 11:23:57;;;;;;;5.27;1.10;;;;;;;13.73;58.95;93517.19;5004205;28;20192;-76
2023/01/17 11:26:30;;;;;;;2.23;1.03;;;;;;;13.73;59.29;93488.88;5010907;28;20184;-76
2023/01/17 11:29:30;;;;;;;3.13;1.40;;;;;;;13.76;59.56;93485.69;5012491;28;20187;-76
2023/01/17 11:31:56;;;;;;;3.77;1.40;;;;;;;13.80;59.00;93478.03;5024956;28;20242;-76
2023/01/17 11:34:24;;;;;;;0.90;0.90;;;;;;;13.89;57.64;93466.66;5031252;28;20188;-76
2023/01/17 11:37:08;;;;;;;3.90;1.43;;;;;;;13.83;57.43;93448.44;5032055;28;20230;-76
2023/01/17 11:39:34;;;;;;;1.90;1.23;;;;;;;13.74;57.30;93439.44;5024863;28;20622;-76
2023/01/17 11:41:59;;;;;;;1.67;1.30;;;;;;;13.89;57.71;93479.09;5022821;28;20171;-76
2023/01/17 11:44:33;;;;;;;1.20;1.10;;;;;;;13.94;57.44;93450.78;5033007;28;20180;-76
2023/01/17 11:47:11;;;;;;;5.27;1.80;;;;;;;13.96;57.94;93451.31;5033194;28;20646;-76
2023/01/17 11:49:38;;;;;;;5.77;1.33;;;;;;;13.93;57.56;93454.47;5033534;28;20558;-78
2023/01/17 11:52:17;;;;;;;1.13;1.03;;;;;;;13.86;57.27;93429.38;5033160;28;20187;-78
2023/01/17 11:54:45;;;;;;;4.13;1.37;;;;;;;13.90;57.25;93439.16;5033246;28;20261;-78
2023/01/17 11:57:27;;;;;;;1.07;0.97;;;;;;;13.89;57.42;93434.13;5021967;28;20210;-78
2023/01/17 12:00:28;;;;;;;2.07;1.10;;;;;;;13.84;57.65;93419.03;5022311;28;20667;-77
2023/01/17 12:03:03;;;;;;;8.73;1.63;;;;;;;13.94;56.70;93434.13;5007812;28;20208;-78
2023/01/17 12:05:42;;;;;;;2.30;1.10;;;;;;;13.97;57.87;93412.44;5013041;28;20179;-77
2023/01/17 12:08:19;;;;;;;2.87;1.40;;;;;;;13.97;57.73;93420.38;5012958;28;20172;-78
2023/01/17 12:11:06;;;;;;;1.27;1.17;;;;;;;14.05;57.99;93424.31;5012581;28;20188;-75
2023/01/17 12:13:59;;;;;;;1.70;0.93;;;;;;;14.02;55.97;93409.75;5029447;28;20187;-76
2023/01/17 12:16:33;;;;;;;2.43;1.93;;;;;;;13.95;60.58;93385.44;5025759;28;20184;-76
2023/01/17 12:19:17;;;;;;;1.13;1.00;;;;;;;14.00;56.09;93417.19;4998114;28;20227;-76
2023/01/17 12:21:48;;;;;;;2.93;1.40;;;;;;;13.97;56.83;93376.19;5000542;28;20210;-77
2023/01/17 12:24:23;;;;;;;1.73;1.00;;;;;;;13.97;56.34;93389.41;5013040;28;20176;-77
2023/01/17 12:27:16;;;;;;;0.73;0.73;;;;;;;13.98;55.72;93383.06;5030176;28;20566;-76
2023/01/17 12:29:50;;;;;;;1.63;1.30;;;;;;;13.98;56.62;93409.53;5031173;28;20190;-76
2023/01/17 12:32:43;;;;;;;1.43;1.33;;;;;;;13.94;57.83;93387.28;5027641;28;20648;-77
2023/01/17 12:35:15;;;;;;;1.37;1.00;;;;;;;13.82;56.99;93365.63;5012978;28;20189;-76
2023/01/17 12:37:44;;;;;;;2.20;1.20;;;;;;;13.76;57.05;93358.75;5012529;28;20200;-76
2023/01/17 12:40:43;;;;;;;3.10;1.60;;;;;;;13.89;59.92;93392.59;5022443;28;20176;-76
2023/01/17 12:43:26;;;;;;;2.40;2.20;;;;;;;13.92;59.67;93389.41;5020023;28;20184;-76
2023/01/17 12:45:53;;;;;;;2.63;1.27;;;;;;;14.00;57.84;93366.94;5026710;28;20233;-77
2023/01/17 12:48:20;;;;;;;3.33;1.20;;;;;;;13.91;57.89;93357.94;5026543;28;20168;-77
2023/01/17 12:50:59;;;;;;;3.60;1.07;;;;;;;14.09;55.98;93380.41;5019483;28;20207;-76
2023/01/17 12:53:49;;;;;;;4.43;2.27;;;;;;;14.10;57.17;93379.31;5027856;28;20183;-77
2023/01/17 12:56:31;;;;;;;1.77;1.27;;;;;;;14.10;56.22;93403.13;5019552;28;20577;-76
2023/01/17 12:59:23;;;;;;;1.63;1.25;;;;;;;14.04;57.47;93356.59;5007456;28;20446;-76
2023/01/17 13:01:56;;;;;;;3.40;1.23;;;;;;;14.16;55.12;93379.06;5011536;28;20228;-77
2023/01/17 13:04:28;;;;;;;1.10;0.87;;;;;;;14.20;55.52;93371.34;5015995;28;20258;-76
2023/01/17 13:06:59;;;;;;;1.33;1.00;;;;;;;14.11;55.49;93379.06;5031523;28;20662;-76
2023/01/17 13:09:33;;;;;;;1.10;1.00;;;;;;;14.07;55.93;93390.44;5029184;28;20229;-75